createdAt,value
2018-06-10T03:56:31.159Z,18.30
2018-06-10T03:59:00.319Z,18.30
2018-06-10T04:01:33.520Z,18.30
2018-06-10T04:04:04.769Z,18.30
2018-06-10T04:06:32.465Z,18.30
2018-06-10T04:09:02.497Z,18.30
2018-06-10T04:11:49.491Z,18.30
2018-06-10T04:14:18.068Z,18.20
2018-06-10T04:16:48.715Z,18.30
2018-06-10T04:19:17.857Z,18.20
2018-06-10T04:21:51.210Z,18.20
2018-06-10T04:24:22.998Z,18.30
2018-06-10T04:26:51.484Z,18.30
2018-06-10T04:29:28.109Z,18.30
2018-06-10T04:32:10.464Z,18.30
2018-06-10T04:51:46.195Z,18.40
2018-06-10T04:54:17.943Z,18.40
2018-06-10T04:56:48.911Z,18.50
2018-06-10T05:19:15.911Z,18.70
2018-06-10T05:21:51.150Z,18.70
2018-06-10T05:41:24.352Z,18.90
2018-06-10T05:43:58.354Z,18.90
2018-06-10T05:46:34.776Z,19.00
2018-06-10T05:49:06.546Z,19.00
2018-06-10T05:51:36.207Z,19.00
2018-06-10T05:54:04.928Z,19.00
2018-06-10T05:56:32.624Z,19.10
2018-06-10T05:59:02.469Z,19.10
2018-06-10T06:18:43.718Z,19.30
2018-06-10T06:38:19.143Z,19.60
2018-06-10T06:41:06.461Z,19.70
2018-06-10T06:43:41.022Z,19.70
2018-06-10T06:46:24.988Z,19.70
2018-06-10T06:49:04.174Z,19.80
2018-06-10T06:51:35.713Z,19.80
2018-06-10T06:54:12.279Z,19.90
2018-06-10T06:56:40.901Z,20.00
2018-06-10T06:59:12.538Z,20.10
2018-06-10T07:18:46.016Z,20.80
2018-06-10T07:21:18.085Z,20.80
2018-06-10T07:23:45.788Z,20.80
2018-06-10T07:26:13.172Z,20.90
2018-06-10T07:28:42.044Z,20.90
2018-06-10T07:31:14.395Z,21.00
2018-06-10T07:33:41.941Z,21.00
2018-06-10T07:36:09.464Z,21.00
2018-06-10T07:55:39.379Z,21.20
2018-06-10T07:58:06.931Z,21.20
2018-06-10T08:00:34.465Z,21.10
2018-06-10T08:03:01.979Z,21.20
2018-06-10T08:05:30.388Z,21.20
2018-06-10T08:07:57.924Z,21.20
2018-06-10T08:10:25.451Z,21.10
2018-06-10T08:12:53.037Z,21.10
2018-06-10T08:15:20.564Z,21.10
2018-06-10T08:17:48.072Z,21.10
2018-06-10T08:37:20.581Z,21.10
2018-06-10T08:39:48.021Z,21.10
2018-06-10T08:42:15.545Z,21.10
2018-06-10T08:44:43.153Z,21.20
2018-06-10T08:47:11.448Z,21.30
2018-06-10T08:49:39.064Z,21.20
2018-06-10T08:52:06.567Z,21.30
2018-06-10T08:54:34.202Z,21.30
2018-06-10T08:57:01.742Z,21.40
2018-06-10T08:59:29.322Z,21.50
2018-06-10T09:01:56.868Z,21.60
2018-06-10T09:04:43.961Z,21.60
2018-06-10T09:07:11.464Z,21.70
2018-06-10T09:09:40.447Z,21.90
2018-06-10T09:12:07.976Z,21.90
2018-06-10T09:20:16.145Z,22.40
2018-06-10T09:22:43.704Z,22.50
2018-06-10T09:25:11.440Z,22.60
2018-06-10T09:27:38.971Z,22.70
2018-06-10T09:32:38.804Z,22.80
2018-06-10T09:35:06.386Z,22.90
2018-06-10T09:37:34.687Z,23.00
2018-06-10T09:40:12.952Z,23.10
2018-06-10T09:42:44.751Z,23.10
2018-06-10T09:45:13.324Z,23.10
2018-06-10T09:47:41.092Z,23.20
2018-06-10T09:50:08.836Z,23.30
2018-06-10T09:52:38.521Z,23.40
2018-06-10T09:55:09.329Z,23.50
2018-06-10T09:57:37.137Z,23.60
2018-06-10T10:00:04.737Z,23.70
2018-06-10T10:02:32.396Z,23.80
2018-06-10T10:05:00.906Z,23.80
2018-06-10T10:07:30.145Z,23.90
2018-06-10T10:09:57.941Z,23.90
2018-06-10T10:12:28.396Z,24.10
2018-06-10T10:14:56.394Z,24.00
2018-06-10T10:17:25.375Z,24.10
2018-06-10T10:19:53.549Z,24.20
2018-06-10T10:22:23.335Z,24.40
2018-06-10T10:41:59.521Z,25.00
2018-06-10T10:44:29.208Z,25.00
2018-06-10T10:46:59.257Z,24.90
2018-06-10T10:52:12.277Z,24.90
2018-06-10T10:54:52.970Z,24.90
2018-06-10T10:57:21.337Z,25.10
2018-06-10T10:59:51.916Z,25.10
2018-06-10T11:02:23.798Z,25.50
2018-06-10T11:27:43.452Z,25.90
2018-06-10T11:31:10.415Z,26.10
2018-06-10T11:33:49.583Z,26.20
2018-06-10T11:39:28.737Z,26.30
2018-06-10T11:42:23.803Z,26.60
2018-06-10T11:48:14.626Z,26.70
2018-06-10T12:34:56.719Z,28.40
2018-06-10T13:01:01.321Z,28.40
2018-06-10T13:08:25.278Z,28.50
2018-06-10T13:30:56.649Z,29.20
2018-06-10T13:33:32.988Z,29.30
2018-06-10T13:36:01.452Z,29.20
2018-06-10T13:38:33.712Z,29.20
2018-06-10T13:41:06.831Z,29.20
2018-06-10T13:43:36.673Z,29.10
2018-06-10T13:46:05.150Z,29.00
2018-06-10T13:48:35.433Z,29.00
2018-06-10T14:22:44.767Z,28.40
2018-06-10T14:42:41.059Z,28.50
2018-06-10T14:45:21.920Z,28.40
2018-06-10T15:56:16.679Z,28.20
2018-06-10T15:58:46.643Z,27.00
2018-06-10T16:01:17.283Z,26.90
2018-06-10T16:03:47.095Z,26.70
2018-06-10T16:06:17.921Z,26.80
2018-06-10T16:08:46.618Z,26.90
2018-06-10T16:11:16.072Z,27.00
2018-06-10T16:13:45.146Z,27.20
2018-06-10T16:16:14.661Z,27.20
2018-06-10T16:18:43.619Z,27.20
2018-06-10T16:21:12.324Z,27.30
2018-06-10T16:23:41.137Z,27.30
2018-06-10T16:26:09.820Z,27.30
2018-06-10T16:28:38.625Z,27.30
2018-06-10T16:31:08.058Z,27.30
2018-06-10T16:33:36.689Z,27.30
2018-06-10T16:36:05.419Z,27.30
2018-06-10T16:38:34.579Z,27.20
2018-06-10T16:41:03.134Z,27.30
2018-06-10T16:43:32.560Z,27.40
2018-06-10T16:46:01.721Z,27.50
2018-06-10T16:48:31.113Z,27.50
2018-06-10T16:51:00.904Z,27.50
2018-06-10T16:53:29.456Z,27.50
2018-06-10T16:56:02.717Z,27.70
2018-06-10T17:12:45.662Z,27.70
2018-06-10T17:23:54.675Z,27.30
2018-06-10T17:26:23.205Z,27.10
2018-06-10T17:31:21.242Z,26.80
2018-06-10T17:33:50.435Z,26.70
2018-06-10T17:36:19.071Z,26.50
2018-06-10T17:38:47.598Z,26.40
2018-06-10T17:41:20.756Z,26.30
2018-06-10T17:43:49.233Z,26.10
2018-06-10T17:46:18.689Z,26.00
2018-06-10T17:48:47.121Z,25.90
2018-06-10T17:51:15.642Z,25.80
2018-06-10T17:53:44.288Z,25.70
2018-06-10T17:56:12.629Z,25.60
2018-06-10T17:58:41.463Z,25.50
2018-06-10T18:01:10.062Z,25.40
2018-06-10T18:03:38.529Z,25.30
2018-06-10T18:06:07.628Z,25.20
2018-06-10T18:08:36.100Z,25.20
2018-06-10T18:11:04.845Z,25.00
2018-06-10T18:13:33.281Z,25.00
2018-06-10T18:16:03.797Z,25.00
2018-06-10T18:18:33.125Z,24.90
2018-06-10T18:21:06.590Z,24.80
2018-06-10T18:23:35.778Z,24.80
2018-06-10T18:26:04.489Z,24.70
2018-06-10T18:28:33.233Z,24.70
2018-06-10T18:48:06.511Z,24.00
2018-06-10T18:50:35.612Z,23.90
2018-06-10T18:53:05.566Z,23.90
2018-06-10T18:55:39.234Z,23.80
2018-06-10T18:58:07.907Z,23.80
2018-06-10T19:00:38.381Z,23.70
2018-06-10T19:20:16.603Z,23.30
2018-06-10T19:22:54.866Z,23.20
2018-06-10T19:25:26.697Z,23.20
2018-06-10T19:27:58.668Z,23.10
2018-06-10T19:33:03.057Z,23.00
2018-06-10T19:35:31.552Z,23.00
2018-06-10T19:38:02.696Z,22.90
2018-06-10T19:40:35.469Z,22.90
2018-06-10T19:45:42.000Z,22.80
2018-06-10T20:05:16.601Z,22.20
2018-06-10T20:07:45.660Z,22.20
2018-06-10T20:10:14.236Z,22.10
2018-06-10T20:12:43.449Z,22.10
2018-06-10T20:15:11.788Z,22.00
2018-06-10T20:17:41.004Z,22.00
2018-06-10T20:37:14.039Z,21.60
2018-06-10T20:39:42.433Z,21.50
2018-06-10T20:42:11.113Z,21.40
2018-06-10T20:44:42.053Z,21.40
2018-06-10T21:04:18.869Z,21.10
2018-06-10T21:06:48.248Z,21.10
2018-06-10T21:09:17.439Z,21.00
2018-06-10T21:11:50.837Z,21.00
2018-06-10T21:31:30.729Z,20.60
2018-06-10T21:51:22.874Z,20.40
2018-06-10T21:53:53.964Z,20.40
2018-06-10T22:13:29.253Z,20.10
2018-06-10T22:18:28.851Z,19.90
2018-06-10T22:20:59.600Z,20.00
2018-06-10T22:40:37.349Z,19.80
2018-06-10T22:43:11.917Z,19.70
2018-06-10T23:02:48.974Z,19.50
2018-06-10T23:05:17.648Z,19.40
2018-06-10T23:07:46.584Z,19.40
2018-06-10T23:10:20.251Z,19.30
2018-06-10T23:12:54.778Z,19.30
2018-06-10T23:15:25.530Z,19.30
2018-06-10T23:17:55.826Z,19.30
2018-06-10T23:20:25.957Z,19.20
2018-06-10T23:22:58.915Z,19.20
2018-06-10T23:25:31.631Z,19.10
2018-06-10T23:28:00.233Z,19.10
2018-06-10T23:30:28.951Z,19.10
2018-06-10T23:35:33.528Z,19.00
2018-06-10T23:38:04.188Z,19.00
2018-06-10T23:40:36.401Z,19.00
2018-06-10T23:43:07.223Z,19.00
2018-06-10T23:45:37.174Z,18.90
2018-06-10T23:48:07.611Z,18.90
2018-06-10T23:50:36.873Z,18.90
2018-06-10T23:53:06.823Z,18.90
2018-06-10T23:55:35.524Z,18.80
2018-06-10T23:58:04.205Z,18.80
